Time;durP1;ratioP1;P1;durP2;ratioP2;P2;SDS_P1;SDS_P2;PMS_P1;PMS_P2;Temp;Humidity;BMP_temperature;BMP_pressure;BME280_temperature;BME280_humidity;BME280_pressure;Samples;Min_cycle;Max_cycle;Signal;HPM_P1;HPM_P2
2022/02/06 00:00:50;;;;;;;8.20;2.17;;;;;;;8.22;100.00;100090.94;5007209;28;20336;-80
2022/02/06 00:03:16;;;;;;;4.93;1.15;;;;;;;8.20;100.00;100035.88;4972771;28;20049;-80
2022/02/06 00:05:48;;;;;;;9.80;1.25;;;;;;;8.28;100.00;100095.59;4959553;28;20066;-79
2022/02/06 00:08:14;;;;;;;6.43;1.30;;;;;;;8.27;100.00;100072.47;4979201;28;20045;-81
2022/02/06 00:10:39;;;;;;;12.50;2.88;;;;;;;8.30;100.00;100071.28;5003448;28;20036;-82
2022/02/06 00:13:06;;;;;;;14.32;3.22;;;;;;;8.28;100.00;100059.91;4984588;28;20034;-83
2022/02/06 00:15:31;;;;;;;7.10;1.88;;;;;;;8.35;100.00;100064.38;5005449;28;20056;-81
2022/02/06 00:17:57;;;;;;;5.68;1.20;;;;;;;8.32;100.00;100056.72;4970720;28;20385;-79
2022/02/06 00:20:29;;;;;;;6.63;1.35;;;;;;;8.28;100.00;100051.88;4989084;28;20490;-81
2022/02/06 00:22:58;;;;;;;5.32;1.80;;;;;;;8.40;100.00;100044.31;4988436;28;20038;-81
2022/02/06 00:25:32;;;;;;;9.25;1.60;;;;;;;8.35;100.00;100034.09;5002874;28;20479;-81
2022/02/06 00:28:17;;;;;;;11.70;3.20;;;;;;;8.41;100.00;100033.41;4989448;28;20036;-80
2022/02/06 00:41:25;;;;;;;23.65;3.95;;;;;;;8.37;100.00;100016.00;4987779;28;20073;-78
2022/02/06 00:43:52;;;;;;;14.90;3.10;;;;;;;8.37;100.00;100011.47;4983165;28;20054;-83
2022/02/06 00:46:19;;;;;;;15.93;2.90;;;;;;;8.42;100.00;99996.75;4984817;28;20116;-81
2022/02/06 00:48:51;;;;;;;13.77;2.88;;;;;;;8.40;100.00;100017.53;4988827;28;20121;-83
2022/02/06 00:53:45;;;;;;;5.13;1.25;;;;;;;8.37;100.00;99992.72;4990516;28;20116;-81
2022/02/06 00:56:11;;;;;;;11.20;2.05;;;;;;;8.28;100.00;99976.88;5011682;28;20286;-77
2022/02/06 00:58:37;;;;;;;2.60;1.10;;;;;;;8.34;100.00;100008.34;4962491;28;20468;-81
2022/02/06 01:01:03;;;;;;;7.80;1.50;;;;;;;8.30;100.00;99981.06;4974449;28;20121;-82
2022/02/06 01:03:29;;;;;;;17.23;1.88;;;;;;;8.11;100.00;99950.25;4962003;28;20040;-79
2022/02/06 01:05:55;;;;;;;0.50;0.50;;;;;;;8.22;100.00;99989.16;4957043;28;20404;-81
2022/02/06 01:08:21;;;;;;;2.55;0.95;;;;;;;8.10;100.00;99974.53;4956212;28;20091;-79
2022/02/06 01:10:47;;;;;;;13.60;2.38;;;;;;;8.18;100.00;99989.69;4987432;28;20044;-84
2022/02/06 01:16:21;;;;;;;5.32;1.63;;;;;;;8.15;100.00;99988.22;4990451;28;20033;-78
2022/02/06 01:18:56;;;;;;;10.73;2.97;;;;;;;8.10;100.00;99996.78;4960094;28;20038;-78
2022/02/06 01:24:02;;;;;;;4.50;1.45;;;;;;;8.08;100.00;99982.75;4990316;28;20062;-85
2022/02/06 01:29:05;;;;;;;8.15;1.58;;;;;;;7.99;100.00;99975.78;4987167;28;20061;-81
2022/02/06 01:31:46;;;;;;;1.55;0.88;;;;;;;7.91;100.00;99982.03;4972977;28;20477;-83
2022/02/06 01:34:21;;;;;;;10.07;1.95;;;;;;;7.84;100.00;99969.53;4963285;28;20041;-80
2022/02/06 01:37:04;;;;;;;4.50;1.17;;;;;;;7.84;100.00;99982.91;5008040;28;20038;-78
2022/02/06 02:17:11;;;;;;;19.77;2.80;;;;;;;7.73;100.00;99968.09;4980191;28;20045;-83
2022/02/06 02:28:12;;;;;;;6.97;1.15;;;;;;;7.17;100.00;99991.41;4991558;28;20033;-78
2022/02/06 02:33:34;;;;;;;12.90;1.77;;;;;;;7.00;100.00;99956.72;4976255;28;20034;-84
2022/02/06 02:46:59;;;;;;;10.68;1.45;;;;;;;6.89;100.00;100034.59;4980373;28;20140;-79
2022/02/06 02:49:29;;;;;;;0.60;0.60;;;;;;;6.86;100.00;100039.47;5007368;28;20065;-80
2022/02/06 02:52:01;;;;;;;0.45;0.45;;;;;;;6.80;100.00;100032.94;4995912;28;20091;-84
2022/02/06 02:54:29;;;;;;;1.05;0.80;;;;;;;6.76;100.00;100036.97;4960879;28;20033;-78
2022/02/06 02:57:07;;;;;;;0.50;0.50;;;;;;;6.76;100.00;100043.13;4961272;28;20578;-79
2022/02/06 02:59:58;;;;;;;0.40;0.40;;;;;;;6.72;100.00;100048.97;4979832;28;20507;-84
2022/02/06 03:02:18;;;;;;;1.60;0.77;;;;;;;6.72;100.00;100057.00;4991993;28;20046;-81
2022/02/06 03:04:49;;;;;;;4.00;0.85;;;;;;;6.73;100.00;100072.03;4978395;28;20041;-78
2022/02/06 03:07:15;;;;;;;2.88;0.90;;;;;;;6.75;100.00;100064.69;4977104;28;20052;-80
2022/02/06 03:09:43;;;;;;;0.50;0.50;;;;;;;6.67;100.00;100053.97;4976345;28;20034;-83
2022/02/06 03:12:10;;;;;;;1.55;1.55;;;;;;;6.72;100.00;100059.66;5009554;28;20049;-83
2022/02/06 03:14:46;;;;;;;0.40;0.40;;;;;;;6.73;100.00;100064.03;4994544;28;20523;-78
2022/02/06 03:17:45;;;;;;;2.78;0.95;;;;;;;6.70;100.00;100037.66;4986811;28;20050;-81
2022/02/06 03:20:18;;;;;;;0.40;0.40;;;;;;;6.69;100.00;100039.47;4983715;28;20042;-79
2022/02/06 03:22:50;;;;;;;0.60;0.60;;;;;;;6.67;100.00;100035.28;4976172;28;20107;-79
2022/02/06 03:25:20;;;;;;;0.40;0.40;;;;;;;6.54;100.00;100014.44;4990024;28;20058;-79
2022/02/06 03:27:46;;;;;;;0.40;0.40;;;;;;;6.68;100.00;100047.66;4991192;28;20156;-84
2022/02/06 03:30:12;;;;;;;0.50;0.50;;;;;;;6.69;100.00;100057.34;4989917;28;20459;-80
2022/02/06 03:32:38;;;;;;;1.05;0.60;;;;;;;6.66;100.00;100047.00;4988389;28;20125;-81
2022/02/06 03:35:04;;;;;;;4.82;1.33;;;;;;;6.63;100.00;100042.81;4989955;28;20033;-83
2022/02/06 03:37:29;;;;;;;11.05;2.35;;;;;;;6.60;100.00;100045.81;5005499;28;20045;-79
2022/02/06 03:40:00;;;;;;;4.78;0.93;;;;;;;6.53;100.00;100071.53;4986100;28;20391;-81
2022/02/06 03:42:33;;;;;;;15.98;2.50;;;;;;;6.51;100.00;100065.50;4991671;28;20125;-80
2022/02/06 03:45:04;;;;;;;4.72;0.98;;;;;;;6.47;100.00;100078.38;4990596;28;20044;-83
2022/02/06 03:47:45;;;;;;;0.50;0.50;;;;;;;6.27;100.00;100067.19;4955256;28;20038;-79
2022/02/06 03:50:12;;;;;;;1.30;0.55;;;;;;;6.38;100.00;100080.19;4987192;28;20155;-79
2022/02/06 03:52:45;;;;;;;8.80;1.73;;;;;;;6.30;100.00;100088.22;4990164;28;20034;-78
2022/02/06 03:55:18;;;;;;;8.18;1.90;;;;;;;6.24;100.00;100050.63;4990948;28;20037;-81
2022/02/06 03:57:47;;;;;;;11.50;2.33;;;;;;;6.24;100.00;100059.47;4986929;28;20026;-78
2022/02/06 04:00:14;;;;;;;0.45;0.45;;;;;;;6.24;100.00;100070.16;4975061;28;20370;-83
2022/02/06 04:02:40;;;;;;;0.45;0.45;;;;;;;6.24;100.00;100056.81;5007968;28;20500;-80
2022/02/06 04:05:06;;;;;;;7.97;1.08;;;;;;;6.26;100.00;100081.50;4957712;28;20045;-78
2022/02/06 04:07:32;;;;;;;0.77;0.77;;;;;;;6.23;100.00;100065.00;4985701;28;20061;-80
2022/02/06 04:09:58;;;;;;;1.17;0.70;;;;;;;6.29;100.00;100083.84;4955539;28;20492;-84
2022/02/06 04:12:27;;;;;;;1.40;1.30;;;;;;;6.21;100.00;100065.16;4962653;28;20069;-81
2022/02/06 04:14:59;;;;;;;0.55;0.55;;;;;;;6.22;100.00;100090.00;4971612;28;20060;-80
2022/02/06 04:17:27;;;;;;;0.60;0.60;;;;;;;6.19;100.00;100079.66;4978330;28;20454;-79
2022/02/06 04:19:53;;;;;;;0.60;0.60;;;;;;;6.18;100.00;100083.34;4985005;28;20487;-77
2022/02/06 04:22:20;;;;;;;0.40;0.40;;;;;;;6.19;100.00;100080.50;4952254;28;20042;-79
2022/02/06 04:24:46;;;;;;;1.55;1.08;;;;;;;6.16;100.00;100080.81;4983736;28;20040;-82
2022/02/06 04:27:11;;;;;;;7.72;1.42;;;;;;;6.19;100.00;100059.13;4981985;28;20033;-81
2022/02/06 04:29:37;;;;;;;0.40;0.40;;;;;;;6.16;100.00;100081.66;4983381;28;20455;-79
2022/02/06 04:32:07;;;;;;;1.65;1.08;;;;;;;6.11;100.00;100083.13;4982895;28;20024;-81
2022/02/06 04:34:34;;;;;;;0.50;0.50;;;;;;;6.09;100.00;100080.66;4967125;28;20096;-79
2022/02/06 04:40:20;;;;;;;4.88;1.17;;;;;;;6.10;100.00;100090.31;4985135;28;20026;-80
2022/02/06 04:47:55;;;;;;;7.40;1.42;;;;;;;5.85;100.00;100105.41;4984115;28;20034;-79
2022/02/06 04:50:34;;;;;;;10.85;2.33;;;;;;;5.79;100.00;100094.53;4968937;28;20045;-79
2022/02/06 05:27:28;;;;;;;0.55;0.55;;;;;;;5.77;100.00;100104.50;4984094;28;20522;-81
2022/02/06 05:30:05;;;;;;;0.47;0.47;;;;;;;5.76;100.00;100089.53;4989236;28;20038;-80
2022/02/06 05:32:40;;;;;;;0.90;0.60;;;;;;;5.79;100.00;100074.00;4989414;28;20030;-79
2022/02/06 05:35:07;;;;;;;0.60;0.60;;;;;;;5.69;100.00;100058.16;4974336;28;20042;-82
2022/02/06 05:37:34;;;;;;;0.50;0.50;;;;;;;5.81;100.00;100087.22;4986907;28;20037;-79
2022/02/06 05:40:00;;;;;;;4.63;1.15;;;;;;;5.79;100.00;100106.03;4968188;28;20026;-79
2022/02/06 05:42:25;;;;;;;1.10;1.02;;;;;;;5.71;100.00;100103.34;4954323;28;20081;-82
2022/02/06 05:44:55;;;;;;;12.27;2.75;;;;;;;5.72;100.00;100113.03;5005670;28;20061;-83
2022/02/06 05:47:22;;;;;;;0.65;0.65;;;;;;;5.76;100.00;100122.34;4990904;28;20392;-82
2022/02/06 05:49:48;;;;;;;8.15;2.17;;;;;;;5.62;100.00;100102.47;4985357;28;20030;-81
2022/02/06 05:52:14;;;;;;;9.43;1.95;;;;;;;5.62;100.00;100118.47;5003451;28;20396;-78
2022/02/06 05:54:42;;;;;;;3.92;0.98;;;;;;;5.60;100.00;100128.47;4987307;28;20044;-78
2022/02/06 05:57:07;;;;;;;0.40;0.40;;;;;;;5.50;100.00;100127.72;4985111;28;20496;-81
2022/02/06 05:59:33;;;;;;;2.05;0.98;;;;;;;5.40;100.00;100119.88;4987696;28;20032;-80
2022/02/06 06:02:00;;;;;;;0.50;0.50;;;;;;;5.35;100.00;100132.00;4958700;28;20049;-83
2022/02/06 06:04:26;;;;;;;1.70;1.60;;;;;;;5.31;100.00;100125.28;4971158;28;20046;-81
2022/02/06 06:06:52;;;;;;;1.85;0.50;;;;;;;5.25;100.00;100122.25;4957824;28;20038;-86
2022/02/06 06:09:17;;;;;;;0.90;0.88;;;;;;;5.24;100.00;100115.28;4955758;28;20045;-79
2022/02/06 06:11:43;;;;;;;0.47;0.47;;;;;;;5.22;100.00;100103.94;4993466;28;20045;-80
2022/02/06 06:14:09;;;;;;;0.43;0.43;;;;;;;5.33;100.00;100105.50;4967836;28;20034;-81
2022/02/06 06:16:35;;;;;;;7.93;2.75;;;;;;;5.40;100.00;100101.19;4974713;28;20109;-81
2022/02/06 06:19:01;;;;;;;0.98;0.65;;;;;;;5.50;100.00;100087.72;4965122;28;20104;-82
2022/02/06 06:21:30;;;;;;;0.40;0.40;;;;;;;5.55;100.00;100084.59;4959014;28;20193;-82
2022/02/06 06:23:56;;;;;;;2.20;0.85;;;;;;;5.58;100.00;100074.44;4974496;28;20045;-77
2022/02/06 06:26:24;;;;;;;15.23;2.55;;;;;;;5.62;100.00;100078.47;4988952;28;20396;-81
2022/02/06 06:28:50;;;;;;;0.73;0.73;;;;;;;5.63;100.00;100096.13;4992922;28;20618;-78
2022/02/06 06:31:16;;;;;;;0.50;0.50;;;;;;;5.63;100.00;100111.28;4995761;28;20078;-77
2022/02/06 06:33:41;;;;;;;4.88;1.02;;;;;;;5.66;100.00;100119.84;4975489;28;20476;-78
2022/02/06 06:36:07;;;;;;;0.88;0.68;;;;;;;5.66;100.00;100140.31;4991819;28;20503;-82
2022/02/06 06:38:34;;;;;;;6.38;1.35;;;;;;;5.67;100.00;100131.34;5010242;28;20026;-80
2022/02/06 06:41:02;;;;;;;0.82;0.60;;;;;;;5.75;100.00;100150.03;4992656;28;20440;-82
2022/02/06 06:43:28;;;;;;;6.28;1.17;;;;;;;5.81;100.00;100137.91;4999071;28;20030;-83
2022/02/06 06:45:54;;;;;;;3.63;1.05;;;;;;;5.85;100.00;100147.25;4958858;28;20041;-84
2022/02/06 06:48:19;;;;;;;4.90;2.15;;;;;;;5.83;100.00;100135.91;4992105;28;20065;-80
2022/02/06 06:50:45;;;;;;;3.03;1.20;;;;;;;5.69;100.00;100140.84;4960314;28;20169;-80
2022/02/06 06:53:12;;;;;;;8.13;2.50;;;;;;;5.81;100.00;100130.72;5004535;28;20042;-80
2022/02/06 06:55:41;;;;;;;8.13;2.05;;;;;;;5.83;100.00;100114.56;4973690;28;20037;-84
2022/02/06 07:03:04;;;;;;;4.03;0.95;;;;;;;5.88;100.00;100122.94;4989788;28;20026;-80
2022/02/06 07:05:30;;;;;;;7.85;1.70;;;;;;;5.86;100.00;100119.56;4987619;28;20120;-80
2022/02/06 07:07:56;;;;;;;2.55;1.30;;;;;;;5.84;100.00;100116.22;5002475;28;20044;-83
2022/02/06 07:10:22;;;;;;;0.77;0.65;;;;;;;5.88;100.00;100121.09;4986058;28;20029;-80
2022/02/06 07:12:47;;;;;;;0.40;0.40;;;;;;;5.92;100.00;100134.94;4988168;28;20443;-82
2022/02/06 07:15:13;;;;;;;1.25;1.20;;;;;;;5.88;100.00;100129.09;4989958;28;20068;-78
2022/02/06 07:17:39;;;;;;;0.65;0.65;;;;;;;5.98;100.00;100141.50;4984257;28;20393;-82
2022/02/06 07:20:05;;;;;;;8.13;1.70;;;;;;;5.98;100.00;100145.00;4986167;28;20442;-78
2022/02/06 07:22:35;;;;;;;0.40;0.40;;;;;;;5.99;100.00;100133.34;5003343;28;20057;-78
2022/02/06 07:25:02;;;;;;;0.40;0.40;;;;;;;5.90;100.00;100137.78;4970214;28;20042;-78
2022/02/06 07:27:34;;;;;;;0.40;0.40;;;;;;;5.93;100.00;100153.50;4970783;28;20033;-80
2022/02/06 07:30:05;;;;;;;6.82;1.58;;;;;;;5.90;100.00;100139.59;4972314;28;20045;-79
2022/02/06 07:32:34;;;;;;;1.08;0.60;;;;;;;5.78;100.00;100111.53;4988750;28;20036;-78
2022/02/06 07:35:00;;;;;;;0.40;0.40;;;;;;;5.89;100.00;100143.25;4992106;28;20429;-82
2022/02/06 07:37:26;;;;;;;0.40;0.40;;;;;;;5.87;100.00;100119.41;4972424;28;20041;-83
2022/02/06 07:39:51;;;;;;;0.45;0.45;;;;;;;5.86;100.00;100108.91;4975693;28;20045;-82
2022/02/06 07:42:17;;;;;;;4.57;1.48;;;;;;;5.95;100.00;100134.63;5005432;28;20578;-81
2022/02/06 07:44:46;;;;;;;0.50;0.50;;;;;;;6.01;100.00;100125.19;4989824;28;20038;-81
2022/02/06 07:47:18;;;;;;;3.92;1.02;;;;;;;6.05;100.00;100110.50;4988343;28;20091;-79
2022/02/06 07:49:46;;;;;;;2.15;0.57;;;;;;;6.12;100.00;100125.69;4991765;28;20033;-77
2022/02/06 07:52:12;;;;;;;10.98;3.00;;;;;;;6.09;100.00;100144.72;4990789;28;20112;-79
2022/02/06 07:54:38;;;;;;;0.75;0.70;;;;;;;6.14;100.00;100155.75;4972548;28;20030;-77
2022/02/06 07:57:04;;;;;;;0.50;0.50;;;;;;;6.06;100.00;100163.72;4974124;28;20040;-80
2022/02/06 07:59:31;;;;;;;7.13;1.80;;;;;;;6.03;100.00;100173.88;4956235;28;20034;-83
2022/02/06 08:01:57;;;;;;;4.57;1.65;;;;;;;5.98;100.00;100154.81;4982050;28;20037;-84
2022/02/06 08:04:23;;;;;;;1.15;0.80;;;;;;;5.97;100.00;100162.00;4974472;28;20100;-81
2022/02/06 08:06:49;;;;;;;7.88;1.48;;;;;;;5.89;100.00;100170.78;4991430;28;20435;-79
2022/02/06 08:09:15;;;;;;;0.50;0.50;;;;;;;5.88;100.00;100184.28;4959142;28;20061;-85
2022/02/06 08:11:46;;;;;;;1.33;0.80;;;;;;;5.78;100.00;100199.56;4985917;28;20089;-82
2022/02/06 08:14:49;;;;;;;1.88;0.93;;;;;;;5.76;100.00;100138.38;4960319;28;20092;-82
2022/02/06 08:17:01;;;;;;;0.50;0.50;;;;;;;5.77;100.00;100174.75;4983592;28;20038;-83
2022/02/06 08:19:27;;;;;;;0.80;0.80;;;;;;;5.80;100.00;100177.09;4968227;28;20634;-87
2022/02/06 08:21:52;;;;;;;12.50;1.60;;;;;;;5.74;100.00;100188.38;5000990;28;20425;-80
2022/02/06 08:24:18;;;;;;;0.50;0.50;;;;;;;5.67;100.00;100185.50;4953911;28;20924;-79
2022/02/06 08:26:43;;;;;;;7.40;1.65;;;;;;;5.75;100.00;100208.72;4989192;28;20114;-81
2022/02/06 08:29:12;;;;;;;0.95;0.95;;;;;;;5.82;100.00;100200.91;5006645;28;20030;-82
2022/02/06 08:31:38;;;;;;;0.60;0.60;;;;;;;5.84;100.00;100194.44;4989355;28;20353;-82
2022/02/06 08:34:03;;;;;;;4.20;0.82;;;;;;;5.83;100.00;100189.28;4959398;28;20483;-81
2022/02/06 08:36:32;;;;;;;2.83;1.15;;;;;;;5.86;100.00;100189.78;4974683;28;20074;-82
2022/02/06 08:39:00;;;;;;;0.50;0.50;;;;;;;5.89;100.00;100185.94;4985528;28;20061;-78
2022/02/06 08:41:26;;;;;;;0.60;0.60;;;;;;;5.97;100.00;100194.03;4994668;28;20411;-80
2022/02/06 08:43:51;;;;;;;5.60;1.23;;;;;;;5.99;100.00;100205.38;4973746;28;20547;-83
2022/02/06 08:46:18;;;;;;;2.13;0.80;;;;;;;6.03;100.00;100203.22;4959476;28;20046;-79
2022/02/06 08:48:44;;;;;;;0.57;0.57;;;;;;;6.11;100.00;100200.59;4976878;28;20121;-84
2022/02/06 08:51:10;;;;;;;2.83;0.98;;;;;;;6.16;100.00;100214.28;4970782;28;20124;-79
2022/02/06 08:53:36;;;;;;;20.50;1.25;;;;;;;6.19;100.00;100218.47;4974030;28;20092;-78
2022/02/06 08:56:02;;;;;;;0.40;0.40;;;;;;;6.24;100.00;100200.97;4964959;28;20040;-81
2022/02/06 08:58:27;;;;;;;2.05;0.90;;;;;;;6.16;100.00;100169.75;4957928;28;20034;-83
2022/02/06 09:00:56;;;;;;;0.50;0.50;;;;;;;6.36;100.00;100221.06;4958135;28;20124;-81
2022/02/06 09:03:22;;;;;;;0.47;0.47;;;;;;;6.46;100.00;100234.28;4973344;28;20042;-83
2022/02/06 09:05:50;;;;;;;2.10;0.80;;;;;;;6.44;100.00;100217.56;4961596;28;20122;-83
2022/02/06 09:08:16;;;;;;;1.77;0.85;;;;;;;6.41;100.00;100209.88;5002926;28;20080;-84
2022/02/06 09:10:41;;;;;;;1.25;0.90;;;;;;;6.42;100.00;100232.91;4972026;28;20090;-81
2022/02/06 09:13:07;;;;;;;0.50;0.50;;;;;;;6.46;100.00;100222.75;5003898;28;20022;-83
2022/02/06 09:15:33;;;;;;;0.50;0.50;;;;;;;6.53;100.00;100215.75;4994362;28;20034;-83
2022/02/06 09:17:59;;;;;;;1.40;1.40;;;;;;;6.63;100.00;100220.97;4970834;28;20048;-79
2022/02/06 09:20:25;;;;;;;0.50;0.50;;;;;;;6.69;100.00;100212.28;4972653;28;20048;-82
2022/02/06 09:22:50;;;;;;;0.50;0.50;;;;;;;6.63;100.00;100188.91;4986804;28;20041;-81
2022/02/06 09:25:19;;;;;;;0.45;0.45;;;;;;;6.69;100.00;100209.63;4953430;28;20685;-80
2022/02/06 09:27:47;;;;;;;2.65;0.90;;;;;;;6.70;100.00;100222.00;4986925;28;20563;-83
2022/02/06 09:30:17;;;;;;;0.60;0.60;;;;;;;6.75;100.00;100220.50;4973616;28;20034;-82
2022/02/06 09:35:10;;;;;;;1.02;0.75;;;;;;;6.75;100.00;100188.44;4974365;28;20034;-81
2022/02/06 09:37:41;;;;;;;3.05;2.85;;;;;;;6.87;100.00;100198.78;4958711;28;20074;-83
2022/02/06 09:40:15;;;;;;;0.85;0.60;;;;;;;6.94;100.00;100197.97;5006717;28;20044;-80
2022/02/06 09:42:49;;;;;;;1.65;0.95;;;;;;;6.94;100.00;100189.94;4989180;28;20334;-78
2022/02/06 09:45:15;;;;;;;1.35;0.68;;;;;;;7.16;100.00;100211.66;4994565;28;20046;-77
2022/02/06 09:47:43;;;;;;;9.07;2.00;;;;;;;7.17;100.00;100222.22;4993959;28;20062;-80
2022/02/06 09:50:09;;;;;;;0.50;0.50;;;;;;;7.17;100.00;100218.69;4990216;28;20026;-85
2022/02/06 09:52:38;;;;;;;1.15;0.85;;;;;;;7.22;100.00;100213.66;4992769;28;20026;-81
2022/02/06 09:55:11;;;;;;;0.52;0.52;;;;;;;7.13;100.00;100217.34;4994881;28;20037;-88
2022/02/06 09:57:50;;;;;;;2.08;0.93;;;;;;;7.16;100.00;100217.03;4989351;28;20375;-79
2022/02/06 10:00:16;;;;;;;4.03;0.70;;;;;;;7.14;100.00;100224.38;4974254;28;20045;-80
2022/02/06 10:02:47;;;;;;;0.95;0.95;;;;;;;7.10;100.00;100221.19;4966392;28;20073;-80
2022/02/06 10:05:14;;;;;;;3.55;1.40;;;;;;;7.19;100.00;100249.59;5009241;28;20030;-85
2022/02/06 10:07:46;;;;;;;3.42;1.05;;;;;;;7.15;100.00;100258.97;4974364;28;20536;-85
2022/02/06 10:10:13;;;;;;;1.38;1.15;;;;;;;7.02;100.00;100256.78;4996166;28;20038;-80
2022/02/06 10:12:45;;;;;;;5.28;1.42;;;;;;;6.89;100.00;100242.22;4979972;28;20029;-81
2022/02/06 10:15:16;;;;;;;3.67;0.90;;;;;;;6.97;100.00;100244.91;4996263;28;20100;-80
2022/02/06 10:17:42;;;;;;;2.75;0.98;;;;;;;6.90;100.00;100250.06;4962388;28;20492;-81
2022/02/06 10:20:13;;;;;;;1.85;0.98;;;;;;;7.01;100.00;100225.72;4963890;28;20116;-79
2022/02/06 10:22:48;;;;;;;3.00;1.05;;;;;;;7.12;100.00;100243.25;4964744;28;20029;-81
2022/02/06 10:25:17;;;;;;;0.52;0.52;;;;;;;7.24;100.00;100238.41;4995362;28;20046;-79
2022/02/06 10:28:03;;;;;;;0.50;0.50;;;;;;;7.45;100.00;100225.34;4982772;28;20052;-87
2022/02/06 10:30:39;;;;;;;4.93;1.27;;;;;;;7.37;100.00;100249.44;4969175;28;20077;-86
2022/02/06 10:33:11;;;;;;;0.60;0.60;;;;;;;7.23;100.00;100255.47;4969256;28;20043;-89
2022/02/06 10:35:38;;;;;;;0.40;0.40;;;;;;;7.01;100.00;100239.06;4974674;28;20049;-86
2022/02/06 10:38:23;;;;;;;1.70;0.60;;;;;;;7.18;100.00;100279.19;4989791;28;20080;-87
2022/02/06 10:41:16;;;;;;;0.70;0.70;;;;;;;7.33;100.00;100271.31;5025399;28;20051;-87
2022/02/06 10:44:01;;;;;;;1.45;0.80;;;;;;;7.56;100.00;100279.53;4986519;28;20042;-88
2022/02/06 10:46:32;;;;;;;14.75;2.70;;;;;;;7.60;100.00;100283.56;4998367;28;20084;-86
2022/02/06 10:49:01;;;;;;;6.45;1.60;;;;;;;7.69;100.00;100282.53;4985401;28;20034;-85
2022/02/06 10:51:59;;;;;;;10.82;1.45;;;;;;;7.85;100.00;100254.91;4977983;28;20092;-88
2022/02/06 10:54:32;;;;;;;3.88;1.38;;;;;;;8.15;100.00;100274.75;4987270;28;20046;-85
2022/02/06 10:57:04;;;;;;;8.90;1.00;;;;;;;8.25;100.00;100256.63;4989315;28;20025;-89
2022/02/06 10:59:42;;;;;;;4.85;1.35;;;;;;;8.48;100.00;100288.91;4999264;28;20034;-85
2022/02/06 11:02:26;;;;;;;1.58;1.33;;;;;;;8.72;100.00;100265.69;4999964;28;20036;-87
2022/02/06 11:05:15;;;;;;;8.05;1.52;;;;;;;9.12;100.00;100279.84;4988363;28;20075;-88
2022/02/06 11:08:01;;;;;;;14.30;2.05;;;;;;;9.00;100.00;100266.03;4992005;28;20026;-84
2022/02/06 11:10:32;;;;;;;14.88;3.60;;;;;;;9.39;100.00;100275.78;4969540;28;20050;-82
2022/02/06 11:13:07;;;;;;;5.07;2.13;;;;;;;9.27;100.00;100277.22;5003927;28;20030;-86
2022/02/06 11:15:44;;;;;;;2.08;0.85;;;;;;;9.09;100.00;100283.72;5009447;28;20030;-83
2022/02/06 11:18:18;;;;;;;8.90;2.17;;;;;;;8.40;100.00;100259.47;4995953;28;20037;-83
2022/02/06 11:21:07;;;;;;;12.30;1.73;;;;;;;8.14;100.00;100302.53;4992698;28;20393;-87
2022/02/06 11:23:39;;;;;;;5.03;1.55;;;;;;;7.96;100.00;100308.09;5000665;28;20041;-86
2022/02/06 11:26:10;;;;;;;7.35;1.95;;;;;;;7.90;100.00;100314.97;4976912;28;20036;-83
2022/02/06 11:28:36;;;;;;;1.17;0.98;;;;;;;8.23;100.00;100309.56;4987505;28;20113;-87
2022/02/06 11:31:02;;;;;;;1.88;0.95;;;;;;;8.71;100.00;100312.25;4993073;28;20037;-87
2022/02/06 11:33:28;;;;;;;7.20;1.65;;;;;;;8.98;100.00;100309.09;4971385;28;20030;-87
2022/02/06 11:36:05;;;;;;;10.93;2.05;;;;;;;9.02;100.00;100309.56;4978739;28;20030;-80
2022/02/06 11:45:01;;;;;;;4.75;1.05;;;;;;;9.54;100.00;100338.41;4983101;28;20729;-85
2022/02/06 11:47:30;;;;;;;0.85;0.77;;;;;;;10.23;100.00;100345.50;5006342;28;20065;-83
2022/02/06 11:50:06;;;;;;;4.65;1.67;;;;;;;10.93;100.00;100353.13;4983573;28;20029;-86
2022/02/06 11:53:09;;;;;;;17.33;3.40;;;;;;;9.74;100.00;100364.75;4994271;28;20053;-85
2022/02/06 11:55:39;;;;;;;6.93;1.67;;;;;;;8.72;100.00;100368.34;4916536;29;20123;-84
2022/02/06 11:58:24;;;;;;;5.13;0.75;;;;;;;8.01;100.00;100394.09;4974066;28;20077;-85
2022/02/06 12:01:07;;;;;;;13.27;3.00;;;;;;;7.66;100.00;100395.25;4976968;28;20033;-87
2022/02/06 12:04:00;;;;;;;1.95;1.15;;;;;;;7.55;100.00;100390.25;4972310;28;20057;-84
2022/02/06 12:06:49;;;;;;;0.88;0.88;;;;;;;7.65;100.00;100394.44;5006292;28;20033;-83
2022/02/06 12:09:19;;;;;;;7.50;2.33;;;;;;;7.88;100.00;100401.78;4985088;28;20460;-86
2022/02/06 12:12:14;;;;;;;4.82;1.58;;;;;;;8.07;100.00;100403.28;4978712;28;20524;-83
2022/02/06 12:14:50;;;;;;;5.60;1.17;;;;;;;8.21;100.00;100401.78;4990990;28;20042;-85
2022/02/06 12:17:55;;;;;;;0.65;0.65;;;;;;;8.43;100.00;100413.66;5010525;28;20503;-85
2022/02/06 12:20:21;;;;;;;3.28;1.80;;;;;;;8.45;100.00;100396.41;4981138;28;20459;-85
2022/02/06 12:22:49;;;;;;;1.95;0.90;;;;;;;8.19;100.00;100406.47;4973477;28;20038;-84
2022/02/06 12:25:36;;;;;;;8.25;1.77;;;;;;;8.17;100.00;100421.88;4993708;28;20113;-85
2022/02/06 12:28:22;;;;;;;7.40;1.50;;;;;;;8.13;100.00;100379.38;4980425;28;20056;-83
2022/02/06 12:31:12;;;;;;;0.50;0.50;;;;;;;8.32;100.00;100412.97;4976654;28;20065;-81
2022/02/06 12:33:52;;;;;;;2.58;1.80;;;;;;;8.55;100.00;100412.31;4990676;28;20030;-85
2022/02/06 12:39:33;;;;;;;5.60;1.20;;;;;;;8.55;100.00;100418.50;4979576;28;20124;-86
2022/02/06 12:42:00;;;;;;;10.30;2.15;;;;;;;8.52;100.00;100408.13;4993597;28;20132;-84
2022/02/06 12:44:27;;;;;;;2.55;1.05;;;;;;;8.79;100.00;100432.84;4981552;28;20468;-84
2022/02/06 12:47:01;;;;;;;7.05;1.55;;;;;;;8.92;100.00;100445.72;4982821;28;20037;-83
2022/02/06 12:49:34;;;;;;;1.17;0.60;;;;;;;8.77;100.00;100446.41;4990359;28;20144;-85
2022/02/06 12:52:01;;;;;;;10.77;1.98;;;;;;;8.65;100.00;100444.25;5009976;28;20106;-85
2022/02/06 12:54:27;;;;;;;18.13;2.55;;;;;;;9.13;100.00;100453.16;4962919;28;20061;-86
2022/02/06 12:56:57;;;;;;;7.75;1.90;;;;;;;9.93;100.00;100417.97;4992369;28;20456;-86
2022/02/06 12:59:27;;;;;;;5.68;1.42;;;;;;;12.88;90.33;100452.56;4991999;28;20025;-87
2022/02/06 13:01:56;;;;;;;10.90;2.80;;;;;;;15.03;79.81;100467.16;4997144;28;20029;-86
2022/02/06 13:04:27;;;;;;;7.38;1.75;;;;;;;15.87;75.57;100469.94;4962738;28;20041;-85
2022/02/06 13:06:53;;;;;;;1.73;1.63;;;;;;;16.99;71.68;100472.81;4985023;28;20033;-85
2022/02/06 13:09:26;;;;;;;2.45;1.73;;;;;;;18.12;68.44;100485.00;4990605;28;20385;-84
2022/02/06 13:12:03;;;;;;;4.75;1.88;;;;;;;19.15;63.91;100461.88;4991321;28;20026;-87
2022/02/06 13:20:03;;;;;;;6.93;2.03;;;;;;;13.95;74.99;100443.03;4986081;28;20038;-84
2022/02/06 13:30:27;;;;;;;9.20;2.38;;;;;;;16.42;67.47;100470.19;4996681;28;20037;-89
2022/02/06 13:33:05;;;;;;;11.60;2.80;;;;;;;13.20;78.13;100496.97;4996292;28;20656;-85
2022/02/06 13:38:10;;;;;;;12.02;2.63;;;;;;;8.90;96.31;100537.06;4981872;28;20048;-88
2022/02/06 13:40:49;;;;;;;3.30;1.30;;;;;;;8.21;100.00;100530.34;4992454;28;20029;-86
2022/02/06 13:43:19;;;;;;;5.10;2.38;;;;;;;9.73;97.72;100497.31;4984103;28;20376;-85
2022/02/06 13:45:45;;;;;;;6.43;2.38;;;;;;;13.15;79.44;100518.34;4996824;28;20623;-85
2022/02/06 13:48:14;;;;;;;1.85;0.98;;;;;;;10.18;88.76;100522.56;4987638;28;20423;-85
2022/02/06 13:50:47;;;;;;;11.10;3.85;;;;;;;10.50;90.93;100526.88;4994811;28;20040;-85
2022/02/06 13:53:14;;;;;;;8.90;3.72;;;;;;;13.32;78.48;100526.16;5012283;28;20176;-86
2022/02/06 13:55:51;;;;;;;7.30;3.00;;;;;;;15.20;71.18;100502.72;4996936;28;20132;-88
2022/02/06 13:58:26;;;;;;;7.35;3.10;;;;;;;15.99;68.44;100528.69;4985328;28;20029;-87
2022/02/06 14:01:07;;;;;;;2.10;1.50;;;;;;;16.45;67.73;100530.28;4964782;28;20032;-84
2022/02/06 14:03:49;;;;;;;5.97;1.40;;;;;;;14.49;72.69;100533.16;4971630;28;20067;-85
2022/02/06 14:06:20;;;;;;;6.32;2.30;;;;;;;13.49;76.96;100535.56;4995644;28;20241;-85
2022/02/06 14:09:07;;;;;;;6.57;1.58;;;;;;;15.32;70.77;100541.66;5000299;28;20084;-82
2022/02/06 14:11:39;;;;;;;8.50;2.42;;;;;;;15.87;66.96;100554.00;5004970;28;20450;-85
2022/02/06 14:14:21;;;;;;;10.75;2.88;;;;;;;16.01;65.65;100540.16;4998550;28;20037;-89
2022/02/06 14:16:49;;;;;;;0.98;0.98;;;;;;;16.44;64.87;100549.50;5001744;28;20037;-84